sensor_id;sensor_type;location;lat;lon;timestamp;P1;durP1;ratioP1;P2;durP2;ratioP2
20140;SDS011;10231;47.702;9.826;2023-06-22T00:01:02;10.43;;;5.83;;
20140;SDS011;10231;47.702;9.826;2023-06-22T00:03:28;8.47;;;5.87;;
20140;SDS011;10231;47.702;9.826;2023-06-22T00:05:53;9.57;;;5.90;;
20140;SDS011;10231;47.702;9.826;2023-06-22T00:08:19;7.70;;;5.60;;
20140;SDS011;10231;47.702;9.826;2023-06-22T00:10:45;9.57;;;5.90;;
20140;SDS011;10231;47.702;9.826;2023-06-22T00:13:11;7.77;;;5.83;;
20140;SDS011;10231;47.702;9.826;2023-06-22T00:15:38;6.43;;;5.17;;
20140;SDS011;10231;47.702;9.826;2023-06-22T00:18:05;6.57;;;5.47;;
20140;SDS011;10231;47.702;9.826;2023-06-22T00:20:31;7.90;;;5.37;;
20140;SDS011;10231;47.702;9.826;2023-06-22T00:22:57;7.30;;;5.17;;
20140;SDS011;10231;47.702;9.826;2023-06-22T00:25:24;10.60;;;5.80;;
20140;SDS011;10231;47.702;9.826;2023-06-22T00:27:50;12.03;;;6.33;;
20140;SDS011;10231;47.702;9.826;2023-06-22T00:30:16;7.40;;;4.83;;
20140;SDS011;10231;47.702;9.826;2023-06-22T00:32:42;7.83;;;5.30;;
20140;SDS011;10231;47.702;9.826;2023-06-22T00:35:09;10.60;;;5.97;;
20140;SDS011;10231;47.702;9.826;2023-06-22T00:37:37;10.13;;;5.03;;
20140;SDS011;10231;47.702;9.826;2023-06-22T00:40:05;8.60;;;5.80;;
20140;SDS011;10231;47.702;9.826;2023-06-22T00:42:33;9.07;;;5.10;;
20140;SDS011;10231;47.702;9.826;2023-06-22T00:44:59;8.07;;;5.00;;
20140;SDS011;10231;47.702;9.826;2023-06-22T00:47:24;8.17;;;5.17;;
20140;SDS011;10231;47.702;9.826;2023-06-22T00:49:50;9.93;;;6.30;;
20140;SDS011;10231;47.702;9.826;2023-06-22T00:52:16;10.10;;;6.03;;
20140;SDS011;10231;47.702;9.826;2023-06-22T00:54:49;8.90;;;5.40;;
20140;SDS011;10231;47.702;9.826;2023-06-22T00:57:17;9.57;;;5.50;;
20140;SDS011;10231;47.702;9.826;2023-06-22T00:59:44;8.30;;;5.47;;
20140;SDS011;10231;47.702;9.826;2023-06-22T01:02:10;10.10;;;5.70;;
20140;SDS011;10231;47.702;9.826;2023-06-22T01:04:36;12.53;;;6.07;;
20140;SDS011;10231;47.702;9.826;2023-06-22T01:09:37;8.90;;;5.70;;
20140;SDS011;10231;47.702;9.826;2023-06-22T01:12:12;9.47;;;5.80;;
20140;SDS011;10231;47.702;9.826;2023-06-22T01:14:53;10.57;;;6.37;;
20140;SDS011;10231;47.702;9.826;2023-06-22T01:17:26;8.77;;;5.63;;
20140;SDS011;10231;47.702;9.826;2023-06-22T01:19:54;10.37;;;5.57;;
20140;SDS011;10231;47.702;9.826;2023-06-22T01:22:22;8.13;;;4.83;;
20140;SDS011;10231;47.702;9.826;2023-06-22T01:24:59;6.80;;;4.70;;
20140;SDS011;10231;47.702;9.826;2023-06-22T01:27:50;9.83;;;5.63;;
20140;SDS011;10231;47.702;9.826;2023-06-22T01:30:25;8.97;;;5.50;;
20140;SDS011;10231;47.702;9.826;2023-06-22T01:32:53;13.37;;;5.80;;
20140;SDS011;10231;47.702;9.826;2023-06-22T01:35:20;10.90;;;5.80;;
20140;SDS011;10231;47.702;9.826;2023-06-22T01:37:46;9.60;;;5.47;;
20140;SDS011;10231;47.702;9.826;2023-06-22T01:40:13;9.20;;;5.00;;
20140;SDS011;10231;47.702;9.826;2023-06-22T01:42:39;11.13;;;5.67;;
20140;SDS011;10231;47.702;9.826;2023-06-22T01:45:06;7.33;;;5.30;;
20140;SDS011;10231;47.702;9.826;2023-06-22T01:47:33;8.37;;;5.70;;
20140;SDS011;10231;47.702;9.826;2023-06-22T01:49:59;9.53;;;6.27;;
20140;SDS011;10231;47.702;9.826;2023-06-22T01:52:25;13.57;;;5.90;;
20140;SDS011;10231;47.702;9.826;2023-06-22T01:54:50;10.00;;;5.97;;
20140;SDS011;10231;47.702;9.826;2023-06-22T01:57:16;10.30;;;6.03;;
20140;SDS011;10231;47.702;9.826;2023-06-22T01:59:50;10.77;;;5.70;;
20140;SDS011;10231;47.702;9.826;2023-06-22T02:02:27;10.73;;;6.33;;
20140;SDS011;10231;47.702;9.826;2023-06-22T02:05:15;11.40;;;6.13;;
20140;SDS011;10231;47.702;9.826;2023-06-22T02:07:49;6.40;;;5.43;;
20140;SDS011;10231;47.702;9.826;2023-06-22T02:10:19;9.17;;;5.67;;
20140;SDS011;10231;47.702;9.826;2023-06-22T02:12:47;9.43;;;6.27;;
20140;SDS011;10231;47.702;9.826;2023-06-22T02:15:13;13.37;;;5.47;;
20140;SDS011;10231;47.702;9.826;2023-06-22T02:17:40;9.37;;;5.53;;
20140;SDS011;10231;47.702;9.826;2023-06-22T02:20:13;7.83;;;5.77;;
20140;SDS011;10231;47.702;9.826;2023-06-22T02:22:39;7.00;;;5.53;;
20140;SDS011;10231;47.702;9.826;2023-06-22T02:25:04;11.17;;;6.47;;
20140;SDS011;10231;47.702;9.826;2023-06-22T02:27:30;8.30;;;5.37;;
20140;SDS011;10231;47.702;9.826;2023-06-22T02:29:56;10.67;;;6.07;;
20140;SDS011;10231;47.702;9.826;2023-06-22T02:32:22;11.17;;;6.27;;
20140;SDS011;10231;47.702;9.826;2023-06-22T02:34:48;9.30;;;5.90;;
20140;SDS011;10231;47.702;9.826;2023-06-22T02:37:13;9.73;;;6.00;;
20140;SDS011;10231;47.702;9.826;2023-06-22T02:39:40;9.90;;;6.00;;
20140;SDS011;10231;47.702;9.826;2023-06-22T02:42:05;12.43;;;5.60;;
20140;SDS011;10231;47.702;9.826;2023-06-22T02:44:31;10.30;;;5.50;;
20140;SDS011;10231;47.702;9.826;2023-06-22T02:46:57;7.27;;;5.93;;
20140;SDS011;10231;47.702;9.826;2023-06-22T02:49:23;8.67;;;5.23;;
20140;SDS011;10231;47.702;9.826;2023-06-22T02:51:49;8.73;;;5.93;;
20140;SDS011;10231;47.702;9.826;2023-06-22T02:54:14;10.87;;;5.40;;
20140;SDS011;10231;47.702;9.826;2023-06-22T02:56:41;10.13;;;6.07;;
20140;SDS011;10231;47.702;9.826;2023-06-22T02:59:08;7.23;;;5.23;;
20140;SDS011;10231;47.702;9.826;2023-06-22T03:01:35;8.67;;;6.33;;
20140;SDS011;10231;47.702;9.826;2023-06-22T03:04:05;9.30;;;6.20;;
20140;SDS011;10231;47.702;9.826;2023-06-22T03:06:32;10.17;;;6.20;;
20140;SDS011;10231;47.702;9.826;2023-06-22T03:09:01;9.60;;;6.53;;
20140;SDS011;10231;47.702;9.826;2023-06-22T03:11:29;8.87;;;5.43;;
20140;SDS011;10231;47.702;9.826;2023-06-22T03:13:58;8.40;;;6.33;;
20140;SDS011;10231;47.702;9.826;2023-06-22T03:16:27;10.10;;;6.03;;
20140;SDS011;10231;47.702;9.826;2023-06-22T03:18:54;7.80;;;6.07;;
20140;SDS011;10231;47.702;9.826;2023-06-22T03:21:21;10.97;;;6.30;;
20140;SDS011;10231;47.702;9.826;2023-06-22T03:23:47;7.07;;;5.70;;
20140;SDS011;10231;47.702;9.826;2023-06-22T03:26:16;13.57;;;5.90;;
20140;SDS011;10231;47.702;9.826;2023-06-22T03:28:42;9.77;;;6.20;;
20140;SDS011;10231;47.702;9.826;2023-06-22T03:31:08;7.63;;;5.80;;
20140;SDS011;10231;47.702;9.826;2023-06-22T03:33:33;11.43;;;6.57;;
20140;SDS011;10231;47.702;9.826;2023-06-22T03:35:59;8.10;;;5.47;;
20140;SDS011;10231;47.702;9.826;2023-06-22T03:38:25;10.10;;;6.20;;
20140;SDS011;10231;47.702;9.826;2023-06-22T03:40:50;7.80;;;6.33;;
20140;SDS011;10231;47.702;9.826;2023-06-22T03:43:16;11.43;;;5.90;;
20140;SDS011;10231;47.702;9.826;2023-06-22T03:45:41;12.37;;;6.33;;
20140;SDS011;10231;47.702;9.826;2023-06-22T03:48:07;12.57;;;6.67;;
20140;SDS011;10231;47.702;9.826;2023-06-22T03:50:32;9.80;;;6.17;;
20140;SDS011;10231;47.702;9.826;2023-06-22T03:52:58;12.27;;;6.90;;
20140;SDS011;10231;47.702;9.826;2023-06-22T03:55:23;12.87;;;6.70;;
20140;SDS011;10231;47.702;9.826;2023-06-22T03:57:49;8.93;;;6.70;;
20140;SDS011;10231;47.702;9.826;2023-06-22T04:00:14;11.20;;;6.70;;
20140;SDS011;10231;47.702;9.826;2023-06-22T04:02:41;10.87;;;6.30;;
20140;SDS011;10231;47.702;9.826;2023-06-22T04:05:08;9.37;;;6.83;;
20140;SDS011;10231;47.702;9.826;2023-06-22T04:07:34;8.27;;;6.87;;
20140;SDS011;10231;47.702;9.826;2023-06-22T04:10:02;10.83;;;6.87;;
20140;SDS011;10231;47.702;9.826;2023-06-22T04:12:28;7.60;;;6.07;;
20140;SDS011;10231;47.702;9.826;2023-06-22T04:14:54;9.00;;;6.30;;
20140;SDS011;10231;47.702;9.826;2023-06-22T04:17:19;9.53;;;6.27;;
20140;SDS011;10231;47.702;9.826;2023-06-22T04:19:45;10.50;;;6.17;;
20140;SDS011;10231;47.702;9.826;2023-06-22T04:22:11;11.00;;;6.50;;
20140;SDS011;10231;47.702;9.826;2023-06-22T04:24:36;10.87;;;6.50;;
20140;SDS011;10231;47.702;9.826;2023-06-22T04:27:02;9.43;;;6.30;;
20140;SDS011;10231;47.702;9.826;2023-06-22T04:29:31;11.77;;;6.73;;
20140;SDS011;10231;47.702;9.826;2023-06-22T04:31:57;9.53;;;6.60;;
20140;SDS011;10231;47.702;9.826;2023-06-22T04:34:23;8.03;;;6.97;;
20140;SDS011;10231;47.702;9.826;2023-06-22T04:36:51;7.47;;;6.57;;
20140;SDS011;10231;47.702;9.826;2023-06-22T04:39:17;12.10;;;7.33;;
20140;SDS011;10231;47.702;9.826;2023-06-22T04:41:43;15.10;;;7.47;;
20140;SDS011;10231;47.702;9.826;2023-06-22T04:44:16;10.03;;;6.47;;
20140;SDS011;10231;47.702;9.826;2023-06-22T04:46:51;11.67;;;7.03;;
20140;SDS011;10231;47.702;9.826;2023-06-22T04:49:24;8.90;;;6.10;;
20140;SDS011;10231;47.702;9.826;2023-06-22T04:51:57;11.23;;;6.50;;
20140;SDS011;10231;47.702;9.826;2023-06-22T04:54:24;11.80;;;6.80;;
20140;SDS011;10231;47.702;9.826;2023-06-22T04:56:49;9.97;;;6.57;;
20140;SDS011;10231;47.702;9.826;2023-06-22T04:59:28;7.67;;;6.63;;
20140;SDS011;10231;47.702;9.826;2023-06-22T05:01:55;7.87;;;7.00;;
20140;SDS011;10231;47.702;9.826;2023-06-22T05:04:28;10.83;;;7.10;;
20140;SDS011;10231;47.702;9.826;2023-06-22T05:06:56;13.73;;;7.23;;
20140;SDS011;10231;47.702;9.826;2023-06-22T05:09:22;7.93;;;6.73;;
20140;SDS011;10231;47.702;9.826;2023-06-22T05:11:49;10.53;;;7.07;;
20140;SDS011;10231;47.702;9.826;2023-06-22T05:14:15;11.43;;;6.73;;
20140;SDS011;10231;47.702;9.826;2023-06-22T05:16:41;10.20;;;7.57;;
20140;SDS011;10231;47.702;9.826;2023-06-22T05:19:07;12.20;;;6.90;;
20140;SDS011;10231;47.702;9.826;2023-06-22T05:21:33;9.33;;;6.70;;
20140;SDS011;10231;47.702;9.826;2023-06-22T05:23:59;11.03;;;7.40;;
20140;SDS011;10231;47.702;9.826;2023-06-22T05:26:25;8.57;;;7.17;;
20140;SDS011;10231;47.702;9.826;2023-06-22T05:28:52;10.20;;;7.17;;
20140;SDS011;10231;47.702;9.826;2023-06-22T05:31:18;13.07;;;6.90;;
20140;SDS011;10231;47.702;9.826;2023-06-22T05:33:47;10.03;;;6.70;;
20140;SDS011;10231;47.702;9.826;2023-06-22T05:36:13;10.40;;;7.13;;
20140;SDS011;10231;47.702;9.826;2023-06-22T05:38:39;7.47;;;6.30;;
20140;SDS011;10231;47.702;9.826;2023-06-22T05:41:06;9.87;;;6.70;;
20140;SDS011;10231;47.702;9.826;2023-06-22T05:43:32;10.23;;;7.63;;
20140;SDS011;10231;47.702;9.826;2023-06-22T05:45:57;9.07;;;6.60;;
20140;SDS011;10231;47.702;9.826;2023-06-22T05:48:24;11.00;;;6.93;;
20140;SDS011;10231;47.702;9.826;2023-06-22T05:50:50;12.77;;;7.87;;
20140;SDS011;10231;47.702;9.826;2023-06-22T05:53:15;11.90;;;7.30;;
20140;SDS011;10231;47.702;9.826;2023-06-22T05:55:41;8.47;;;6.30;;
20140;SDS011;10231;47.702;9.826;2023-06-22T05:58:07;11.53;;;6.70;;
20140;SDS011;10231;47.702;9.826;2023-06-22T06:00:33;9.00;;;7.27;;
20140;SDS011;10231;47.702;9.826;2023-06-22T06:02:58;10.47;;;7.53;;
20140;SDS011;10231;47.702;9.826;2023-06-22T06:05:28;10.90;;;6.63;;
20140;SDS011;10231;47.702;9.826;2023-06-22T06:07:54;11.83;;;6.93;;
20140;SDS011;10231;47.702;9.826;2023-06-22T06:10:20;16.73;;;6.80;;
20140;SDS011;10231;47.702;9.826;2023-06-22T06:12:46;11.07;;;6.70;;
20140;SDS011;10231;47.702;9.826;2023-06-22T06:15:11;9.50;;;6.30;;
20140;SDS011;10231;47.702;9.826;2023-06-22T06:17:44;11.80;;;6.83;;
20140;SDS011;10231;47.702;9.826;2023-06-22T06:20:11;9.20;;;6.77;;
20140;SDS011;10231;47.702;9.826;2023-06-22T06:22:37;10.67;;;7.23;;
20140;SDS011;10231;47.702;9.826;2023-06-22T06:25:02;11.27;;;6.53;;
20140;SDS011;10231;47.702;9.826;2023-06-22T06:27:29;11.07;;;6.80;;
20140;SDS011;10231;47.702;9.826;2023-06-22T06:29:55;10.23;;;7.00;;
20140;SDS011;10231;47.702;9.826;2023-06-22T06:32:20;11.20;;;7.30;;
20140;SDS011;10231;47.702;9.826;2023-06-22T06:34:46;8.50;;;6.33;;
20140;SDS011;10231;47.702;9.826;2023-06-22T06:37:11;12.47;;;7.20;;
20140;SDS011;10231;47.702;9.826;2023-06-22T06:39:37;11.80;;;7.17;;
20140;SDS011;10231;47.702;9.826;2023-06-22T06:42:03;12.20;;;7.23;;
20140;SDS011;10231;47.702;9.826;2023-06-22T06:44:29;10.33;;;6.10;;
20140;SDS011;10231;47.702;9.826;2023-06-22T06:46:55;8.23;;;6.57;;
20140;SDS011;10231;47.702;9.826;2023-06-22T06:49:20;10.23;;;5.93;;
20140;SDS011;10231;47.702;9.826;2023-06-22T06:51:46;10.47;;;6.47;;
20140;SDS011;10231;47.702;9.826;2023-06-22T06:54:11;11.50;;;7.30;;
20140;SDS011;10231;47.702;9.826;2023-06-22T06:56:37;9.47;;;7.00;;
20140;SDS011;10231;47.702;9.826;2023-06-22T06:59:03;10.40;;;7.13;;
20140;SDS011;10231;47.702;9.826;2023-06-22T07:01:28;8.17;;;6.27;;
20140;SDS011;10231;47.702;9.826;2023-06-22T07:03:58;10.50;;;6.33;;
20140;SDS011;10231;47.702;9.826;2023-06-22T07:06:24;10.67;;;6.37;;
20140;SDS011;10231;47.702;9.826;2023-06-22T07:08:54;10.50;;;6.37;;
20140;SDS011;10231;47.702;9.826;2023-06-22T07:11:20;8.30;;;6.60;;
20140;SDS011;10231;47.702;9.826;2023-06-22T07:13:46;10.00;;;7.20;;
20140;SDS011;10231;47.702;9.826;2023-06-22T07:16:11;11.93;;;6.07;;
20140;SDS011;10231;47.702;9.826;2023-06-22T07:18:36;11.17;;;7.07;;
20140;SDS011;10231;47.702;9.826;2023-06-22T07:21:04;10.80;;;6.50;;
20140;SDS011;10231;47.702;9.826;2023-06-22T07:23:31;11.17;;;7.13;;
20140;SDS011;10231;47.702;9.826;2023-06-22T07:25:57;10.13;;;7.03;;
20140;SDS011;10231;47.702;9.826;2023-06-22T07:28:27;10.17;;;6.00;;
20140;SDS011;10231;47.702;9.826;2023-06-22T07:30:53;10.13;;;6.60;;
20140;SDS011;10231;47.702;9.826;2023-06-22T07:33:18;10.07;;;6.07;;
20140;SDS011;10231;47.702;9.826;2023-06-22T07:35:44;10.70;;;5.60;;
20140;SDS011;10231;47.702;9.826;2023-06-22T07:38:10;9.10;;;6.20;;
20140;SDS011;10231;47.702;9.826;2023-06-22T07:40:35;8.63;;;7.17;;
20140;SDS011;10231;47.702;9.826;2023-06-22T07:43:01;12.03;;;6.50;;
20140;SDS011;10231;47.702;9.826;2023-06-22T07:45:28;9.47;;;5.87;;
20140;SDS011;10231;47.702;9.826;2023-06-22T07:47:54;13.80;;;6.50;;
20140;SDS011;10231;47.702;9.826;2023-06-22T07:50:19;11.77;;;6.63;;
20140;SDS011;10231;47.702;9.826;2023-06-22T07:52:45;11.30;;;6.90;;
20140;SDS011;10231;47.702;9.826;2023-06-22T07:55:12;10.90;;;7.07;;
20140;SDS011;10231;47.702;9.826;2023-06-22T07:57:38;11.60;;;6.57;;
20140;SDS011;10231;47.702;9.826;2023-06-22T08:00:04;9.43;;;6.40;;
20140;SDS011;10231;47.702;9.826;2023-06-22T08:02:41;11.80;;;6.43;;
20140;SDS011;10231;47.702;9.826;2023-06-22T08:05:10;14.03;;;6.27;;
20140;SDS011;10231;47.702;9.826;2023-06-22T08:07:36;9.73;;;5.83;;
20140;SDS011;10231;47.702;9.826;2023-06-22T08:10:03;10.53;;;5.87;;
20140;SDS011;10231;47.702;9.826;2023-06-22T08:12:29;11.83;;;6.73;;
20140;SDS011;10231;47.702;9.826;2023-06-22T08:14:54;10.87;;;6.37;;
20140;SDS011;10231;47.702;9.826;2023-06-22T08:17:21;12.83;;;7.20;;
20140;SDS011;10231;47.702;9.826;2023-06-22T08:19:47;9.40;;;6.00;;
20140;SDS011;10231;47.702;9.826;2023-06-22T08:22:13;9.90;;;7.07;;
20140;SDS011;10231;47.702;9.826;2023-06-22T08:24:38;9.93;;;6.40;;
20140;SDS011;10231;47.702;9.826;2023-06-22T08:27:06;11.57;;;6.43;;
20140;SDS011;10231;47.702;9.826;2023-06-22T08:29:34;11.73;;;7.00;;
20140;SDS011;10231;47.702;9.826;2023-06-22T08:32:00;10.37;;;6.63;;
20140;SDS011;10231;47.702;9.826;2023-06-22T08:34:25;8.17;;;6.13;;
20140;SDS011;10231;47.702;9.826;2023-06-22T08:36:52;8.93;;;6.20;;
20140;SDS011;10231;47.702;9.826;2023-06-22T08:39:19;11.23;;;6.30;;
20140;SDS011;10231;47.702;9.826;2023-06-22T08:41:45;15.40;;;7.70;;
20140;SDS011;10231;47.702;9.826;2023-06-22T08:44:11;11.03;;;6.20;;
20140;SDS011;10231;47.702;9.826;2023-06-22T08:46:37;12.63;;;6.57;;
20140;SDS011;10231;47.702;9.826;2023-06-22T08:49:05;11.07;;;6.43;;
20140;SDS011;10231;47.702;9.826;2023-06-22T08:51:31;14.33;;;6.83;;
20140;SDS011;10231;47.702;9.826;2023-06-22T08:53:56;23.10;;;6.77;;
20140;SDS011;10231;47.702;9.826;2023-06-22T08:56:22;12.50;;;6.60;;
20140;SDS011;10231;47.702;9.826;2023-06-22T08:58:47;14.70;;;7.47;;
20140;SDS011;10231;47.702;9.826;2023-06-22T09:01:13;14.93;;;7.27;;
20140;SDS011;10231;47.702;9.826;2023-06-22T09:03:40;15.20;;;7.00;;
20140;SDS011;10231;47.702;9.826;2023-06-22T09:06:06;11.70;;;7.73;;
20140;SDS011;10231;47.702;9.826;2023-06-22T09:08:34;13.83;;;7.37;;
20140;SDS011;10231;47.702;9.826;2023-06-22T09:11:00;10.33;;;7.83;;
20140;SDS011;10231;47.702;9.826;2023-06-22T09:13:25;12.87;;;7.50;;
20140;SDS011;10231;47.702;9.826;2023-06-22T09:15:51;13.40;;;7.90;;
20140;SDS011;10231;47.702;9.826;2023-06-22T09:18:17;11.77;;;7.33;;
20140;SDS011;10231;47.702;9.826;2023-06-22T09:20:42;13.53;;;7.67;;
20140;SDS011;10231;47.702;9.826;2023-06-22T09:23:08;13.80;;;7.07;;
20140;SDS011;10231;47.702;9.826;2023-06-22T09:25:34;12.37;;;8.00;;
20140;SDS011;10231;47.702;9.826;2023-06-22T09:27:59;9.73;;;7.70;;
20140;SDS011;10231;47.702;9.826;2023-06-22T09:30:25;12.90;;;7.30;;
20140;SDS011;10231;47.702;9.826;2023-06-22T09:32:50;13.47;;;7.17;;
20140;SDS011;10231;47.702;9.826;2023-06-22T09:35:16;10.10;;;7.23;;
20140;SDS011;10231;47.702;9.826;2023-06-22T09:37:41;13.50;;;7.83;;
20140;SDS011;10231;47.702;9.826;2023-06-22T09:40:07;12.53;;;8.67;;
20140;SDS011;10231;47.702;9.826;2023-06-22T09:42:37;14.00;;;9.10;;
20140;SDS011;10231;47.702;9.826;2023-06-22T09:45:03;14.93;;;8.07;;
20140;SDS011;10231;47.702;9.826;2023-06-22T09:47:29;13.43;;;8.87;;
20140;SDS011;10231;47.702;9.826;2023-06-22T09:49:55;15.93;;;9.33;;
20140;SDS011;10231;47.702;9.826;2023-06-22T09:52:21;14.43;;;9.67;;
20140;SDS011;10231;47.702;9.826;2023-06-22T09:54:46;18.03;;;9.77;;
20140;SDS011;10231;47.702;9.826;2023-06-22T09:57:12;16.27;;;9.73;;
20140;SDS011;10231;47.702;9.826;2023-06-22T09:59:38;11.57;;;8.50;;
20140;SDS011;10231;47.702;9.826;2023-06-22T10:02:07;13.47;;;9.20;;
20140;SDS011;10231;47.702;9.826;2023-06-22T10:04:33;13.30;;;9.23;;
20140;SDS011;10231;47.702;9.826;2023-06-22T10:06:59;15.43;;;9.90;;
20140;SDS011;10231;47.702;9.826;2023-06-22T10:09:25;13.97;;;8.73;;
20140;SDS011;10231;47.702;9.826;2023-06-22T10:11:50;12.50;;;9.10;;
20140;SDS011;10231;47.702;9.826;2023-06-22T10:14:16;15.10;;;10.27;;
20140;SDS011;10231;47.702;9.826;2023-06-22T10:16:42;14.80;;;9.50;;
20140;SDS011;10231;47.702;9.826;2023-06-22T10:19:07;12.10;;;8.80;;
20140;SDS011;10231;47.702;9.826;2023-06-22T10:21:33;12.37;;;8.83;;
20140;SDS011;10231;47.702;9.826;2023-06-22T10:23:59;11.73;;;9.07;;
20140;SDS011;10231;47.702;9.826;2023-06-22T10:26:30;12.30;;;8.83;;
20140;SDS011;10231;47.702;9.826;2023-06-22T10:29:00;12.87;;;8.53;;
20140;SDS011;10231;47.702;9.826;2023-06-22T10:31:26;17.40;;;7.83;;
20140;SDS011;10231;47.702;9.826;2023-06-22T10:33:52;11.10;;;7.90;;
20140;SDS011;10231;47.702;9.826;2023-06-22T10:36:19;10.80;;;7.23;;
20140;SDS011;10231;47.702;9.826;2023-06-22T10:38:44;11.57;;;7.57;;
20140;SDS011;10231;47.702;9.826;2023-06-22T10:41:11;8.63;;;7.20;;
20140;SDS011;10231;47.702;9.826;2023-06-22T10:43:37;10.90;;;7.63;;
20140;SDS011;10231;47.702;9.826;2023-06-22T10:46:03;11.33;;;6.90;;
20140;SDS011;10231;47.702;9.826;2023-06-22T10:48:28;11.07;;;6.50;;
20140;SDS011;10231;47.702;9.826;2023-06-22T10:50:54;9.27;;;6.10;;
20140;SDS011;10231;47.702;9.826;2023-06-22T10:53:19;11.40;;;6.00;;
20140;SDS011;10231;47.702;9.826;2023-06-22T10:55:45;8.97;;;5.87;;
20140;SDS011;10231;47.702;9.826;2023-06-22T10:58:11;11.17;;;5.90;;
20140;SDS011;10231;47.702;9.826;2023-06-22T11:00:36;7.47;;;5.77;;
20140;SDS011;10231;47.702;9.826;2023-06-22T11:03:02;12.93;;;6.43;;
20140;SDS011;10231;47.702;9.826;2023-06-22T11:05:27;6.73;;;5.27;;
20140;SDS011;10231;47.702;9.826;2023-06-22T11:07:53;8.00;;;5.37;;
20140;SDS011;10231;47.702;9.826;2023-06-22T11:10:18;13.33;;;6.10;;
20140;SDS011;10231;47.702;9.826;2023-06-22T11:12:44;11.77;;;5.93;;
20140;SDS011;10231;47.702;9.826;2023-06-22T11:15:09;12.60;;;6.03;;
20140;SDS011;10231;47.702;9.826;2023-06-22T11:17:35;12.93;;;5.70;;
20140;SDS011;10231;47.702;9.826;2023-06-22T11:20:01;12.03;;;5.90;;
20140;SDS011;10231;47.702;9.826;2023-06-22T11:22:30;9.17;;;5.57;;
20140;SDS011;10231;47.702;9.826;2023-06-22T11:24:58;12.07;;;6.53;;
20140;SDS011;10231;47.702;9.826;2023-06-22T11:27:24;16.70;;;6.70;;
20140;SDS011;10231;47.702;9.826;2023-06-22T11:29:49;45.70;;;10.77;;
20140;SDS011;10231;47.702;9.826;2023-06-22T11:32:15;19.40;;;7.20;;
20140;SDS011;10231;47.702;9.826;2023-06-22T11:34:40;10.70;;;5.93;;
20140;SDS011;10231;47.702;9.826;2023-06-22T11:37:06;11.70;;;6.23;;
20140;SDS011;10231;47.702;9.826;2023-06-22T11:39:31;8.93;;;5.27;;
20140;SDS011;10231;47.702;9.826;2023-06-22T11:41:57;9.77;;;5.37;;
20140;SDS011;10231;47.702;9.826;2023-06-22T11:44:22;11.47;;;6.07;;
20140;SDS011;10231;47.702;9.826;2023-06-22T11:46:48;7.53;;;6.10;;
20140;SDS011;10231;47.702;9.826;2023-06-22T11:49:14;8.40;;;5.83;;
20140;SDS011;10231;47.702;9.826;2023-06-22T11:51:39;15.07;;;6.93;;
20140;SDS011;10231;47.702;9.826;2023-06-22T11:54:05;15.63;;;6.07;;
20140;SDS011;10231;47.702;9.826;2023-06-22T11:56:30;8.03;;;5.83;;
20140;SDS011;10231;47.702;9.826;2023-06-22T11:58:57;12.13;;;5.77;;
20140;SDS011;10231;47.702;9.826;2023-06-22T12:01:22;9.87;;;5.70;;
20140;SDS011;10231;47.702;9.826;2023-06-22T12:03:47;9.97;;;5.90;;
20140;SDS011;10231;47.702;9.826;2023-06-22T12:06:13;14.07;;;6.40;;
20140;SDS011;10231;47.702;9.826;2023-06-22T12:08:39;9.53;;;6.37;;
20140;SDS011;10231;47.702;9.826;2023-06-22T12:11:04;12.20;;;5.73;;
20140;SDS011;10231;47.702;9.826;2023-06-22T12:13:30;10.07;;;5.90;;
20140;SDS011;10231;47.702;9.826;2023-06-22T12:15:55;10.80;;;5.60;;
20140;SDS011;10231;47.702;9.826;2023-06-22T12:18:21;10.50;;;5.63;;
20140;SDS011;10231;47.702;9.826;2023-06-22T12:20:47;11.70;;;6.20;;
20140;SDS011;10231;47.702;9.826;2023-06-22T12:23:12;11.50;;;5.57;;
20140;SDS011;10231;47.702;9.826;2023-06-22T12:25:40;10.87;;;6.50;;
20140;SDS011;10231;47.702;9.826;2023-06-22T12:28:05;12.60;;;6.17;;
20140;SDS011;10231;47.702;9.826;2023-06-22T12:30:32;7.53;;;5.70;;
20140;SDS011;10231;47.702;9.826;2023-06-22T12:32:58;10.93;;;5.80;;
20140;SDS011;10231;47.702;9.826;2023-06-22T12:35:24;10.70;;;5.33;;
20140;SDS011;10231;47.702;9.826;2023-06-22T12:37:49;10.17;;;6.13;;
20140;SDS011;10231;47.702;9.826;2023-06-22T12:40:15;10.43;;;5.10;;
20140;SDS011;10231;47.702;9.826;2023-06-22T12:42:40;9.80;;;5.77;;
20140;SDS011;10231;47.702;9.826;2023-06-22T12:45:07;13.47;;;5.60;;
20140;SDS011;10231;47.702;9.826;2023-06-22T12:47:33;11.37;;;5.60;;
20140;SDS011;10231;47.702;9.826;2023-06-22T12:49:59;12.07;;;5.90;;
20140;SDS011;10231;47.702;9.826;2023-06-22T12:52:24;12.60;;;6.37;;
20140;SDS011;10231;47.702;9.826;2023-06-22T12:54:50;13.63;;;6.00;;
20140;SDS011;10231;47.702;9.826;2023-06-22T12:57:17;11.43;;;5.50;;
20140;SDS011;10231;47.702;9.826;2023-06-22T12:59:44;11.60;;;5.80;;
20140;SDS011;10231;47.702;9.826;2023-06-22T13:02:09;8.57;;;5.40;;
20140;SDS011;10231;47.702;9.826;2023-06-22T13:04:35;8.63;;;4.83;;
20140;SDS011;10231;47.702;9.826;2023-06-22T13:07:01;7.77;;;5.73;;
20140;SDS011;10231;47.702;9.826;2023-06-22T13:09:26;11.40;;;6.17;;
20140;SDS011;10231;47.702;9.826;2023-06-22T13:11:52;8.90;;;5.30;;
20140;SDS011;10231;47.702;9.826;2023-06-22T13:14:17;12.93;;;5.90;;
20140;SDS011;10231;47.702;9.826;2023-06-22T13:16:43;8.80;;;5.67;;
20140;SDS011;10231;47.702;9.826;2023-06-22T13:19:09;12.57;;;6.00;;
20140;SDS011;10231;47.702;9.826;2023-06-22T13:21:34;10.23;;;5.53;;
20140;SDS011;10231;47.702;9.826;2023-06-22T13:24:00;11.93;;;5.93;;
20140;SDS011;10231;47.702;9.826;2023-06-22T13:26:26;10.83;;;6.17;;
20140;SDS011;10231;47.702;9.826;2023-06-22T13:28:53;11.13;;;5.80;;
20140;SDS011;10231;47.702;9.826;2023-06-22T13:31:19;12.17;;;5.67;;
20140;SDS011;10231;47.702;9.826;2023-06-22T13:33:44;8.20;;;6.07;;
20140;SDS011;10231;47.702;9.826;2023-06-22T13:36:12;13.17;;;5.73;;
20140;SDS011;10231;47.702;9.826;2023-06-22T13:38:38;10.33;;;5.33;;
20140;SDS011;10231;47.702;9.826;2023-06-22T13:41:04;9.63;;;5.40;;
20140;SDS011;10231;47.702;9.826;2023-06-22T13:43:30;14.30;;;5.57;;
20140;SDS011;10231;47.702;9.826;2023-06-22T13:45:56;13.00;;;5.53;;
20140;SDS011;10231;47.702;9.826;2023-06-22T13:48:22;13.37;;;5.93;;
20140;SDS011;10231;47.702;9.826;2023-06-22T13:50:48;11.07;;;6.07;;
20140;SDS011;10231;47.702;9.826;2023-06-22T13:53:14;9.60;;;5.83;;
20140;SDS011;10231;47.702;9.826;2023-06-22T13:55:39;14.27;;;5.93;;
20140;SDS011;10231;47.702;9.826;2023-06-22T13:58:05;11.80;;;6.07;;
20140;SDS011;10231;47.702;9.826;2023-06-22T14:00:31;11.07;;;5.47;;
20140;SDS011;10231;47.702;9.826;2023-06-22T14:02:57;8.40;;;5.50;;
20140;SDS011;10231;47.702;9.826;2023-06-22T14:05:23;10.40;;;5.47;;
20140;SDS011;10231;47.702;9.826;2023-06-22T14:07:48;15.87;;;5.47;;
20140;SDS011;10231;47.702;9.826;2023-06-22T14:10:14;11.63;;;5.17;;
20140;SDS011;10231;47.702;9.826;2023-06-22T14:12:39;9.87;;;5.60;;
20140;SDS011;10231;47.702;9.826;2023-06-22T14:15:05;15.13;;;5.70;;
20140;SDS011;10231;47.702;9.826;2023-06-22T14:17:31;10.10;;;5.07;;
20140;SDS011;10231;47.702;9.826;2023-06-22T14:19:56;12.33;;;5.80;;
20140;SDS011;10231;47.702;9.826;2023-06-22T14:22:22;8.57;;;5.20;;
20140;SDS011;10231;47.702;9.826;2023-06-22T14:24:48;16.13;;;5.27;;
20140;SDS011;10231;47.702;9.826;2023-06-22T14:27:13;11.23;;;5.33;;
20140;SDS011;10231;47.702;9.826;2023-06-22T14:29:39;16.57;;;5.53;;
20140;SDS011;10231;47.702;9.826;2023-06-22T14:32:05;12.63;;;5.33;;
20140;SDS011;10231;47.702;9.826;2023-06-22T14:34:32;12.73;;;5.43;;
20140;SDS011;10231;47.702;9.826;2023-06-22T14:36:58;9.13;;;5.47;;